C65

Plymouth Municipal Airport

Plymouth, Indiana, USA
METAR KC65 181155Z AUTO 00000KT 10SM CLR M02/M02 A3050 RMK A01
Observed Flight Rules
Oct-18 @ 11:55 UTC (35 minutes ago) Visual Flight Rules
Visibility Clouds
10 miles
  • Clear skies
Temperatures Readings
Current -2°C / 28°F
Dewpoint -2°C / 28°F
Humidity 100%
Altimeter 30.5" Hg
Pressure 1033 hPa
Elevation 244
METAR KC65 181155Z AUTO 00000KT 10SM CLR M02/M02 A3050 RMK A01
Observed Flight Rules
Oct-18 @ 11:55 UTC
(35 minutes ago)
VFR
Clouds
  • Clear skies
Temperature Dewpoint
-2°C / 28°F -2°C / 28°F
Humidity Altimeter Pressure
100% 30.5" Hg 1033 hPa